createdAt,value
2023-05-19T00:00:02.852Z,7.80
2023-05-19T00:03:37.505Z,5.40
2023-05-19T00:06:57.382Z,2.60
2023-05-19T00:10:35.992Z,2.60
2023-05-19T00:13:51.176Z,6.40
2023-05-19T00:17:19.909Z,3.90
2023-05-19T00:20:34.423Z,4.30
2023-05-19T00:23:35.450Z,3.60
2023-05-19T00:26:44.040Z,6.10
2023-05-19T00:30:09.739Z,5.90
2023-05-19T00:33:12.729Z,4.30
2023-05-19T00:36:30.573Z,6.30
2023-05-19T00:39:59.793Z,4.30
2023-05-19T00:43:11.903Z,4.00
2023-05-19T00:46:07.832Z,4.40
2023-05-19T00:49:26.630Z,6.90
2023-05-19T00:52:54.252Z,6.80
2023-05-19T00:56:18.646Z,8.20
2023-05-19T00:59:42.315Z,4.10
2023-05-19T01:05:33.277Z,3.90
2023-05-19T01:08:16.570Z,5.70
2023-05-19T01:11:00.378Z,4.10
2023-05-19T01:13:44.071Z,5.30
2023-05-19T01:16:40.088Z,3.10
2023-05-19T01:19:48.589Z,6.20
2023-05-19T01:22:50.180Z,3.20
2023-05-19T01:25:54.999Z,5.00
2023-05-19T01:28:49.930Z,8.90
2023-05-19T01:31:34.093Z,4.40
2023-05-19T01:34:19.029Z,7.40
2023-05-19T01:37:03.932Z,4.60
2023-05-19T01:39:48.461Z,5.00
2023-05-19T01:42:37.437Z,7.60
2023-05-19T01:45:22.164Z,5.50
2023-05-19T01:48:07.230Z,6.80
2023-05-19T01:50:52.520Z,2.90
2023-05-19T01:53:35.679Z,6.40
2023-05-19T01:56:27.588Z,6.60
2023-05-19T01:59:24.202Z,9.80
2023-05-19T02:02:23.308Z,5.60
2023-05-19T02:05:45.029Z,4.60
2023-05-19T02:08:48.434Z,7.30
2023-05-19T02:11:37.894Z,5.70
2023-05-19T02:14:34.339Z,4.10
2023-05-19T02:17:18.874Z,3.40
2023-05-19T02:20:04.639Z,6.40
2023-05-19T02:22:47.981Z,4.50
2023-05-19T02:25:30.910Z,6.00
2023-05-19T02:28:13.762Z,7.40
2023-05-19T02:30:56.623Z,6.70
2023-05-19T02:33:39.443Z,8.90
2023-05-19T02:36:22.324Z,8.80
2023-05-19T02:39:05.294Z,5.90
2023-05-19T02:41:48.409Z,6.40
2023-05-19T02:44:31.429Z,6.90
2023-05-19T02:47:14.310Z,7.40
2023-05-19T02:49:57.116Z,5.20
2023-05-19T02:55:22.779Z,6.00
2023-05-19T02:58:05.748Z,10.80
2023-05-19T03:00:48.646Z,3.80
2023-05-19T03:03:31.981Z,5.60
2023-05-19T03:06:15.711Z,5.10
2023-05-19T03:08:58.814Z,8.60
2023-05-19T03:11:41.723Z,10.20
2023-05-19T03:14:24.582Z,3.90
2023-05-19T03:17:08.462Z,7.50
2023-05-19T03:19:51.951Z,10.10
2023-05-19T03:22:35.413Z,10.10
2023-05-19T03:25:18.589Z,4.30
2023-05-19T03:28:01.784Z,6.40
2023-05-19T03:30:44.664Z,7.70
2023-05-19T03:33:30.646Z,8.30
2023-05-19T03:36:13.769Z,6.60
2023-05-19T03:38:56.656Z,6.10
2023-05-19T03:41:39.609Z,10.90
2023-05-19T03:44:22.722Z,13.10
2023-05-19T03:47:05.955Z,9.60
2023-05-19T03:50:17.797Z,8.20
2023-05-19T03:53:08.223Z,7.50
2023-05-19T03:55:56.759Z,6.20
2023-05-19T03:58:43.489Z,9.30
2023-05-19T04:01:26.492Z,10.40
2023-05-19T04:04:09.450Z,9.50
2023-05-19T04:06:52.577Z,14.40
2023-05-19T04:09:37.654Z,6.10
2023-05-19T04:12:20.609Z,10.00
2023-05-19T04:15:03.935Z,9.50
2023-05-19T04:17:46.963Z,7.50
2023-05-19T04:20:29.953Z,6.00
2023-05-19T04:23:13.072Z,8.40
2023-05-19T04:25:57.174Z,14.60
2023-05-19T04:28:42.510Z,19.00
2023-05-19T04:31:26.197Z,8.10
2023-05-19T04:34:10.059Z,13.10
2023-05-19T04:36:53.585Z,11.40
2023-05-19T04:39:43.167Z,10.10
2023-05-19T04:42:30.829Z,9.60
2023-05-19T04:45:15.149Z,9.80
2023-05-19T04:48:00.213Z,8.50
2023-05-19T04:50:43.202Z,10.50
2023-05-19T04:53:26.316Z,10.60
2023-05-19T04:56:10.132Z,10.10
2023-05-19T04:58:53.933Z,10.00
2023-05-19T05:01:41.012Z,10.60
2023-05-19T05:04:24.605Z,10.10
2023-05-19T05:07:07.548Z,8.90
2023-05-19T05:09:50.965Z,10.70
2023-05-19T05:12:35.009Z,7.90
2023-05-19T05:15:18.682Z,5.60
2023-05-19T05:18:02.600Z,9.20
2023-05-19T05:20:47.058Z,6.40
2023-05-19T05:23:31.361Z,7.00
2023-05-19T05:26:19.762Z,7.10
2023-05-19T05:29:04.460Z,10.80
2023-05-19T05:31:47.388Z,8.70
2023-05-19T05:34:30.788Z,9.40
2023-05-19T05:37:15.342Z,9.10
2023-05-19T05:39:58.699Z,9.40
2023-05-19T05:42:42.318Z,10.50
2023-05-19T05:45:25.852Z,9.30
2023-05-19T05:48:09.814Z,8.60
2023-05-19T05:50:54.669Z,10.70
2023-05-19T05:53:45.162Z,16.10
2023-05-19T05:56:29.567Z,12.60
2023-05-19T05:59:12.508Z,8.70
2023-05-19T06:01:55.389Z,9.20
2023-05-19T06:04:39.536Z,15.20
2023-05-19T06:07:22.655Z,14.60
2023-05-19T06:10:07.145Z,11.10
2023-05-19T06:12:50.634Z,12.80
2023-05-19T06:15:33.801Z,13.00
2023-05-19T06:18:30.233Z,7.40
2023-05-19T06:21:14.210Z,7.90
2023-05-19T06:23:58.113Z,7.30
2023-05-19T06:26:42.236Z,12.10
2023-05-19T06:29:25.149Z,5.70
2023-05-19T06:32:09.109Z,9.00
2023-05-19T06:34:54.205Z,9.60
2023-05-19T06:37:39.631Z,12.60
2023-05-19T06:40:23.337Z,11.30
2023-05-19T06:43:07.386Z,9.20
2023-05-19T06:46:07.890Z,9.60
2023-05-19T06:48:50.964Z,7.80
2023-05-19T06:51:36.032Z,14.90
2023-05-19T06:54:19.176Z,14.30
2023-05-19T06:57:02.208Z,9.60
2023-05-19T06:59:46.808Z,5.40
2023-05-19T07:02:30.141Z,10.00
2023-05-19T07:05:13.502Z,9.90
2023-05-19T07:07:56.759Z,10.40
2023-05-19T07:10:42.030Z,8.90
2023-05-19T07:13:27.858Z,7.90
2023-05-19T07:16:11.564Z,11.10
2023-05-19T07:18:55.004Z,9.90
2023-05-19T07:21:37.955Z,9.60
2023-05-19T07:24:21.657Z,12.30
2023-05-19T07:27:05.549Z,7.50
2023-05-19T07:29:48.377Z,6.30
2023-05-19T07:32:31.317Z,12.70
2023-05-19T07:35:14.241Z,7.80
2023-05-19T07:37:56.995Z,8.00
2023-05-19T07:40:39.888Z,8.80
2023-05-19T07:43:22.725Z,10.60
2023-05-19T07:46:06.413Z,7.20
2023-05-19T07:48:49.590Z,9.70
2023-05-19T07:51:32.649Z,11.00
2023-05-19T07:54:15.620Z,7.60
2023-05-19T07:56:58.634Z,7.80
2023-05-19T07:59:41.541Z,8.00
2023-05-19T08:02:24.453Z,14.20
2023-05-19T08:05:09.350Z,9.60
2023-05-19T08:07:52.637Z,9.20
2023-05-19T08:10:35.863Z,11.00
2023-05-19T08:13:18.856Z,11.50
2023-05-19T08:16:01.902Z,10.90
2023-05-19T08:18:44.925Z,18.90
2023-05-19T08:21:28.030Z,6.80
2023-05-19T08:24:11.476Z,9.60
2023-05-19T08:26:54.310Z,8.50
2023-05-19T08:29:38.306Z,9.80
2023-05-19T08:32:21.540Z,11.20
2023-05-19T08:35:04.941Z,12.60
2023-05-19T08:37:47.824Z,12.60
2023-05-19T08:40:31.993Z,9.10
2023-05-19T08:43:15.152Z,6.60
2023-05-19T08:45:59.595Z,8.30
2023-05-19T08:48:44.465Z,9.40
2023-05-19T08:51:47.134Z,6.50
2023-05-19T08:54:38.420Z,7.70
2023-05-19T08:57:23.222Z,6.70
2023-05-19T09:00:12.123Z,7.30
2023-05-19T09:03:01.408Z,8.80
2023-05-19T09:05:49.374Z,7.80
2023-05-19T09:08:32.779Z,4.80
2023-05-19T09:11:15.673Z,6.50
2023-05-19T09:13:58.549Z,5.70
2023-05-19T09:16:41.946Z,7.30
2023-05-19T09:19:28.866Z,8.30
2023-05-19T09:22:11.826Z,5.80
2023-05-19T09:24:55.767Z,9.60
2023-05-19T09:27:38.570Z,6.40
2023-05-19T09:30:21.515Z,7.90
2023-05-19T09:33:08.439Z,20.60
2023-05-19T09:35:52.119Z,10.10
2023-05-19T09:38:36.473Z,16.30
2023-05-19T09:41:19.988Z,9.50
2023-05-19T09:44:02.819Z,6.10
2023-05-19T09:46:52.903Z,9.40
2023-05-19T09:49:35.801Z,8.70
2023-05-19T09:52:18.650Z,7.30
2023-05-19T09:55:04.386Z,7.70
2023-05-19T09:57:47.298Z,9.80
2023-05-19T10:00:32.940Z,5.40
2023-05-19T10:03:17.849Z,5.80
2023-05-19T10:06:09.296Z,7.90
2023-05-19T10:08:53.210Z,10.10
2023-05-19T10:11:36.579Z,8.20
2023-05-19T10:14:29.680Z,8.40
2023-05-19T10:17:13.586Z,9.00
2023-05-19T10:19:57.967Z,7.20
2023-05-19T10:22:42.490Z,8.90
2023-05-19T10:25:26.019Z,9.20
2023-05-19T10:28:13.995Z,6.80
2023-05-19T10:31:01.796Z,9.00
2023-05-19T10:34:19.158Z,6.30
2023-05-19T10:37:17.263Z,8.00
2023-05-19T10:40:06.492Z,5.40
2023-05-19T10:43:14.201Z,8.20
2023-05-19T10:45:58.540Z,9.50
2023-05-19T10:48:46.575Z,8.60
2023-05-19T10:51:34.622Z,7.40
2023-05-19T10:54:18.637Z,12.10
2023-05-19T10:57:01.510Z,5.90
2023-05-19T10:59:44.916Z,8.10
2023-05-19T11:02:46.166Z,11.80
2023-05-19T11:05:30.133Z,12.90
2023-05-19T11:08:13.641Z,6.10
2023-05-19T11:10:57.429Z,10.90
2023-05-19T11:13:43.817Z,8.00
2023-05-19T11:16:34.663Z,7.80
2023-05-19T11:19:28.335Z,12.10
2023-05-19T11:22:13.874Z,12.50
2023-05-19T11:24:57.605Z,11.50
2023-05-19T11:27:40.517Z,7.80
2023-05-19T11:30:23.544Z,7.20
2023-05-19T11:33:07.729Z,7.40
2023-05-19T11:35:51.502Z,10.00
2023-05-19T11:38:35.202Z,5.40
2023-05-19T11:41:19.532Z,8.00
2023-05-19T11:44:04.024Z,9.10
2023-05-19T11:46:47.030Z,10.20
2023-05-19T11:49:30.080Z,4.70
2023-05-19T11:52:13.364Z,7.30
2023-05-19T11:55:01.152Z,7.80
2023-05-19T11:58:05.734Z,11.60
2023-05-19T12:00:49.737Z,8.00
2023-05-19T12:03:33.330Z,7.90
2023-05-19T12:06:17.605Z,3.80
2023-05-19T12:09:01.074Z,8.00
2023-05-19T12:11:43.955Z,8.30
2023-05-19T12:14:27.401Z,14.70
2023-05-19T12:17:14.857Z,9.90
2023-05-19T12:19:58.159Z,7.00
2023-05-19T12:22:41.553Z,14.30
2023-05-19T12:25:25.264Z,8.40
2023-05-19T12:28:08.128Z,7.80
2023-05-19T12:30:52.308Z,8.40
2023-05-19T12:33:35.985Z,10.80
2023-05-19T12:36:19.202Z,5.80
2023-05-19T12:39:02.149Z,5.80
2023-05-19T12:41:45.772Z,2.10
2023-05-19T12:44:28.647Z,4.40
2023-05-19T12:47:11.484Z,7.20
2023-05-19T12:50:00.971Z,5.70
2023-05-19T12:52:48.650Z,7.30
2023-05-19T12:55:39.342Z,10.60
2023-05-19T12:58:22.973Z,9.40
2023-05-19T13:01:08.358Z,5.50
2023-05-19T13:03:52.398Z,5.90
2023-05-19T13:06:35.515Z,8.80
2023-05-19T13:09:19.145Z,10.50
2023-05-19T13:12:02.453Z,4.80
2023-05-19T13:14:45.320Z,4.90
2023-05-19T13:17:28.365Z,6.30
2023-05-19T13:20:12.545Z,7.10
2023-05-19T13:22:57.140Z,5.40
2023-05-19T13:25:42.186Z,8.10
2023-05-19T13:28:25.347Z,5.40
2023-05-19T13:31:08.271Z,6.50
2023-05-19T13:33:51.277Z,11.20
2023-05-19T13:36:35.108Z,8.20
2023-05-19T13:39:18.175Z,5.60
2023-05-19T13:42:01.428Z,6.10
2023-05-19T13:44:47.374Z,9.20
2023-05-19T13:47:30.532Z,10.40
2023-05-19T13:50:15.731Z,9.50
2023-05-19T13:52:58.928Z,8.00
2023-05-19T13:55:42.027Z,9.40
2023-05-19T13:58:25.132Z,10.20
2023-05-19T14:01:08.108Z,7.40
2023-05-19T14:03:51.682Z,7.70
2023-05-19T14:06:35.373Z,10.40
2023-05-19T14:09:18.446Z,8.00
2023-05-19T14:12:01.466Z,9.50
2023-05-19T14:14:44.362Z,7.10
2023-05-19T14:17:27.857Z,11.50
2023-05-19T14:20:11.311Z,10.00
2023-05-19T14:22:55.698Z,8.50
2023-05-19T14:25:38.634Z,8.60
2023-05-19T14:28:21.765Z,10.60
2023-05-19T14:31:06.223Z,10.90
2023-05-19T14:33:49.191Z,10.10
2023-05-19T14:36:33.238Z,12.80
2023-05-19T14:39:16.107Z,10.50
2023-05-19T14:42:01.768Z,10.00
2023-05-19T14:44:45.338Z,7.80
2023-05-19T14:47:28.253Z,8.90
2023-05-19T14:50:11.611Z,9.90
2023-05-19T14:52:54.425Z,7.90
2023-05-19T14:55:37.510Z,8.70
2023-05-19T14:58:28.889Z,10.50
2023-05-19T15:01:12.429Z,8.70
2023-05-19T15:03:55.625Z,12.90
2023-05-19T15:06:38.769Z,21.10
2023-05-19T15:09:21.740Z,13.40
2023-05-19T15:12:04.945Z,7.20
2023-05-19T15:14:48.352Z,7.70
2023-05-19T15:17:31.312Z,7.60
2023-05-19T15:20:14.247Z,7.40
2023-05-19T15:22:57.165Z,6.80
2023-05-19T15:25:40.031Z,8.70
2023-05-19T15:28:23.155Z,14.80
2023-05-19T15:31:06.721Z,6.00
2023-05-19T15:33:49.867Z,9.70
2023-05-19T15:36:32.798Z,13.20
2023-05-19T15:39:15.695Z,8.20
2023-05-19T15:41:58.522Z,20.20
2023-05-19T15:44:41.385Z,16.00
2023-05-19T15:47:24.260Z,13.20
2023-05-19T15:50:08.093Z,11.00
2023-05-19T15:52:50.974Z,9.40
2023-05-19T15:55:33.837Z,8.10
2023-05-19T15:58:16.850Z,10.10
2023-05-19T16:01:00.193Z,9.60
2023-05-19T16:03:45.915Z,12.60
2023-05-19T16:06:29.490Z,15.30
2023-05-19T16:09:12.369Z,8.60
2023-05-19T16:11:55.265Z,14.40
2023-05-19T16:14:38.201Z,20.20
2023-05-19T16:17:21.100Z,7.50
2023-05-19T16:20:04.368Z,16.10
2023-05-19T16:22:47.178Z,9.00
2023-05-19T16:25:31.125Z,11.60
2023-05-19T16:28:14.674Z,9.70
2023-05-19T16:30:59.431Z,12.50
2023-05-19T16:33:42.569Z,8.20
2023-05-19T16:36:25.636Z,13.70
2023-05-19T16:39:08.578Z,13.20
2023-05-19T16:41:52.826Z,13.40
2023-05-19T16:44:36.011Z,17.60
2023-05-19T16:47:18.915Z,13.30
2023-05-19T16:50:01.895Z,13.90
2023-05-19T16:52:44.859Z,13.80
2023-05-19T16:55:27.717Z,14.80
2023-05-19T16:58:11.791Z,17.10
2023-05-19T17:00:54.690Z,15.00
2023-05-19T17:03:37.800Z,13.00
2023-05-19T17:06:20.770Z,11.50
2023-05-19T17:09:04.084Z,9.10
2023-05-19T17:11:46.909Z,7.80
2023-05-19T17:14:29.733Z,11.50
2023-05-19T17:17:12.685Z,11.20
2023-05-19T17:19:55.757Z,15.70
2023-05-19T17:22:38.558Z,15.50
2023-05-19T17:25:21.659Z,14.80
2023-05-19T17:28:04.593Z,14.50
2023-05-19T17:30:47.550Z,14.00
2023-05-19T17:33:30.852Z,9.70
2023-05-19T17:36:14.346Z,13.50
2023-05-19T17:38:57.163Z,18.20
2023-05-19T17:41:40.010Z,10.30
2023-05-19T17:44:22.912Z,7.40
2023-05-19T17:47:07.283Z,16.60
2023-05-19T17:49:53.134Z,13.20
2023-05-19T17:52:36.761Z,21.00
2023-05-19T17:55:20.349Z,13.70
2023-05-19T17:58:03.795Z,17.90
2023-05-19T18:00:46.989Z,11.10
2023-05-19T18:03:30.468Z,8.60
2023-05-19T18:06:13.615Z,12.90
2023-05-19T18:08:59.099Z,10.40
2023-05-19T18:11:41.991Z,9.80
2023-05-19T18:14:24.783Z,8.80
2023-05-19T18:17:07.774Z,8.40
2023-05-19T18:19:50.744Z,8.80
2023-05-19T18:22:33.778Z,14.10
2023-05-19T18:25:20.940Z,14.80
2023-05-19T18:28:04.086Z,11.40
2023-05-19T18:30:47.044Z,11.80
2023-05-19T18:33:31.100Z,14.40
2023-05-19T18:36:16.610Z,9.40
2023-05-19T18:39:00.222Z,13.70
2023-05-19T18:41:43.255Z,12.60
2023-05-19T18:44:26.129Z,12.50
2023-05-19T18:47:08.992Z,15.40
2023-05-19T18:49:51.904Z,13.90
2023-05-19T18:52:35.385Z,14.20
2023-05-19T18:55:18.228Z,14.10
2023-05-19T18:58:01.973Z,11.70
2023-05-19T19:00:44.923Z,10.30
2023-05-19T19:03:28.740Z,10.70
2023-05-19T19:06:11.762Z,15.50
2023-05-19T19:08:54.567Z,16.90
2023-05-19T19:11:37.688Z,13.50
2023-05-19T19:14:20.649Z,10.70
2023-05-19T19:17:03.550Z,20.00
2023-05-19T19:19:47.346Z,11.20
2023-05-19T19:22:30.457Z,12.00
2023-05-19T19:25:13.480Z,13.50
2023-05-19T19:27:56.376Z,17.50
2023-05-19T19:30:39.754Z,15.70
2023-05-19T19:33:22.635Z,12.00
2023-05-19T19:36:07.050Z,17.90
2023-05-19T19:38:50.195Z,13.00
2023-05-19T19:41:33.562Z,15.60
2023-05-19T19:44:16.991Z,24.90
2023-05-19T19:47:00.052Z,23.50
2023-05-19T19:49:43.003Z,15.10
2023-05-19T19:52:26.072Z,16.60
2023-05-19T19:55:09.743Z,12.10
2023-05-19T19:57:52.867Z,12.80
2023-05-19T20:00:35.940Z,15.80
2023-05-19T20:03:22.424Z,16.80
2023-05-19T20:06:05.922Z,15.00
2023-05-19T20:08:49.266Z,16.20
2023-05-19T20:11:32.360Z,14.80
2023-05-19T20:14:15.549Z,11.80
2023-05-19T20:16:58.487Z,14.10
2023-05-19T20:19:44.253Z,16.20
2023-05-19T20:22:27.303Z,15.10
2023-05-19T20:25:10.420Z,16.40
2023-05-19T20:27:53.401Z,13.90
2023-05-19T20:30:36.663Z,14.70
2023-05-19T20:33:19.496Z,14.30
2023-05-19T20:36:02.691Z,16.00
2023-05-19T20:38:47.930Z,14.30
2023-05-19T20:41:31.611Z,14.90
2023-05-19T20:44:14.707Z,12.00
2023-05-19T20:46:57.913Z,14.10
2023-05-19T20:49:40.964Z,19.60
2023-05-19T20:52:23.869Z,13.00
2023-05-19T20:55:07.323Z,10.40
2023-05-19T20:57:50.421Z,17.50
2023-05-19T21:00:33.871Z,14.70
2023-05-19T21:03:17.202Z,12.00
2023-05-19T21:06:00.903Z,12.90
2023-05-19T21:08:43.714Z,11.40
2023-05-19T21:11:26.515Z,16.30
2023-05-19T21:14:09.436Z,12.20
2023-05-19T21:16:54.340Z,12.50
2023-05-19T21:19:37.350Z,13.70
2023-05-19T21:22:20.215Z,12.60
2023-05-19T21:25:03.648Z,15.00
2023-05-19T21:27:46.659Z,17.90
2023-05-19T21:30:29.562Z,17.40
2023-05-19T21:33:12.505Z,10.60
2023-05-19T21:35:55.738Z,13.40
2023-05-19T21:38:38.577Z,12.70
2023-05-19T21:41:22.372Z,17.90
2023-05-19T21:44:06.017Z,15.40
2023-05-19T21:46:49.036Z,12.90
2023-05-19T21:49:31.886Z,17.80
2023-05-19T21:52:14.753Z,14.30
2023-05-19T21:54:58.459Z,14.50
2023-05-19T21:57:41.328Z,18.30
2023-05-19T22:00:25.709Z,13.80
2023-05-19T22:03:08.662Z,16.20
2023-05-19T22:05:53.393Z,14.90
2023-05-19T22:08:36.180Z,13.30
2023-05-19T22:11:19.022Z,14.70
2023-05-19T22:14:01.914Z,16.00
2023-05-19T22:16:45.081Z,14.30
2023-05-19T22:19:28.007Z,16.30
2023-05-19T22:22:14.133Z,16.90
2023-05-19T22:24:57.573Z,14.50
2023-05-19T22:27:40.395Z,15.70
2023-05-19T22:30:23.429Z,20.40
2023-05-19T22:33:06.378Z,16.40
2023-05-19T22:35:49.502Z,16.10
2023-05-19T22:38:32.469Z,17.90
2023-05-19T22:41:15.266Z,18.50
2023-05-19T22:43:58.101Z,13.40
2023-05-19T22:46:40.992Z,15.70
2023-05-19T22:49:23.900Z,16.50
2023-05-19T22:52:09.184Z,18.20
2023-05-19T22:54:52.033Z,15.50
2023-05-19T22:57:35.074Z,16.90
2023-05-19T23:00:20.688Z,18.70
2023-05-19T23:03:03.761Z,18.30
2023-05-19T23:05:46.607Z,16.10
2023-05-19T23:08:29.477Z,16.50
2023-05-19T23:11:12.342Z,18.20
2023-05-19T23:13:55.409Z,20.60
2023-05-19T23:16:38.371Z,17.70
2023-05-19T23:19:21.240Z,25.80
2023-05-19T23:22:04.290Z,21.00
2023-05-19T23:24:47.144Z,24.70
2023-05-19T23:27:29.995Z,20.20
2023-05-19T23:30:12.896Z,20.00
2023-05-19T23:32:56.247Z,21.20
2023-05-19T23:35:39.766Z,18.20
2023-05-19T23:38:22.610Z,17.70
2023-05-19T23:41:05.453Z,16.20
2023-05-19T23:43:48.270Z,21.00
2023-05-19T23:46:31.522Z,20.40
2023-05-19T23:49:14.676Z,16.80
2023-05-19T23:51:57.531Z,17.90
2023-05-19T23:54:40.777Z,19.40
2023-05-19T23:57:23.565Z,18.00
